createdAt,value
2018-07-05T00:01:38.459Z,5.47
2018-07-05T00:04:12.584Z,4.93
2018-07-05T00:06:46.512Z,5.37
2018-07-05T00:09:20.604Z,5.17
2018-07-05T00:11:54.672Z,5.67
2018-07-05T00:14:28.870Z,5.83
2018-07-05T00:17:02.856Z,4.83
2018-07-05T00:19:37.002Z,5.07
2018-07-05T00:22:10.901Z,5.10
2018-07-05T00:24:44.917Z,5.20
2018-07-05T00:27:18.849Z,5.20
2018-07-05T00:29:52.941Z,5.03
2018-07-05T00:32:26.847Z,5.47
2018-07-05T00:35:00.997Z,5.60
2018-07-05T00:37:34.981Z,5.57
2018-07-05T00:40:09.124Z,5.10
2018-07-05T00:42:43.162Z,5.00
2018-07-05T00:45:17.130Z,5.40
2018-07-05T00:47:51.104Z,5.60
2018-07-05T00:50:25.194Z,5.57
2018-07-05T00:52:59.237Z,5.37
2018-07-05T00:55:33.307Z,5.70
2018-07-05T00:58:07.328Z,5.63
2018-07-05T01:00:41.642Z,5.43
2018-07-05T01:03:15.488Z,5.63
2018-07-05T01:05:49.656Z,5.80
2018-07-05T01:08:23.722Z,5.80
2018-07-05T01:10:57.952Z,5.73
2018-07-05T01:13:32.060Z,5.90
2018-07-05T01:16:06.146Z,6.03
2018-07-05T01:18:40.298Z,6.17
2018-07-05T01:21:14.398Z,5.57
2018-07-05T01:23:48.279Z,5.63
2018-07-05T01:26:22.372Z,6.23
2018-07-05T01:28:56.405Z,6.10
2018-07-05T01:31:30.579Z,6.43
2018-07-05T01:34:04.642Z,6.50
2018-07-05T01:36:38.668Z,6.60
2018-07-05T01:39:12.626Z,5.97
2018-07-05T01:41:46.844Z,6.00
2018-07-05T01:44:20.887Z,6.27
2018-07-05T01:46:55.048Z,6.40
2018-07-05T01:49:28.981Z,6.33
2018-07-05T01:52:03.320Z,6.10
2018-07-05T01:54:37.253Z,6.50
2018-07-05T01:57:11.356Z,6.13
2018-07-05T01:59:45.258Z,7.00
2018-07-05T02:02:19.272Z,6.37
2018-07-05T02:04:53.402Z,6.20
2018-07-05T02:07:27.441Z,6.77
2018-07-05T02:10:01.320Z,7.57
2018-07-05T02:12:35.309Z,7.03
2018-07-05T02:15:09.365Z,7.23
2018-07-05T02:17:43.480Z,7.27
2018-07-05T02:20:17.336Z,7.57
2018-07-05T02:22:51.421Z,6.80
2018-07-05T02:25:25.473Z,7.40
2018-07-05T02:27:59.538Z,7.70
2018-07-05T02:30:33.398Z,7.00
2018-07-05T02:33:07.469Z,7.43
2018-07-05T02:35:41.509Z,7.93
2018-07-05T02:38:21.068Z,7.27
2018-07-05T02:40:55.136Z,7.33
2018-07-05T02:43:29.652Z,7.90
2018-07-05T02:46:03.721Z,7.53
2018-07-05T02:48:37.826Z,7.07
2018-07-05T02:51:11.876Z,7.27
2018-07-05T02:53:45.959Z,7.40
2018-07-05T02:56:19.963Z,7.00
2018-07-05T02:58:54.012Z,7.60
2018-07-05T03:01:27.911Z,6.97
2018-07-05T03:04:01.928Z,6.93
2018-07-05T03:06:35.905Z,6.87
2018-07-05T03:09:09.998Z,6.10
2018-07-05T03:11:43.982Z,7.20
2018-07-05T03:14:18.209Z,7.83
2018-07-05T03:16:52.299Z,8.17
2018-07-05T03:19:26.205Z,9.13
2018-07-05T03:22:00.866Z,8.47
2018-07-05T03:24:35.065Z,7.97
2018-07-05T03:27:08.950Z,8.20
2018-07-05T03:29:43.052Z,8.07
2018-07-05T03:32:17.015Z,8.07
2018-07-05T03:34:51.168Z,7.20
2018-07-05T03:37:25.077Z,7.70
2018-07-05T03:39:59.240Z,7.33
2018-07-05T03:42:33.263Z,7.20
2018-07-05T03:45:07.188Z,7.60
2018-07-05T03:47:41.255Z,6.53
2018-07-05T03:50:15.462Z,7.20
2018-07-05T03:52:49.472Z,7.40
2018-07-05T03:55:23.503Z,7.03
2018-07-05T03:57:57.701Z,6.90
2018-07-05T04:00:31.825Z,7.33
2018-07-05T04:03:05.685Z,7.20
2018-07-05T04:05:39.751Z,6.47
2018-07-05T04:08:13.802Z,6.60
2018-07-05T04:10:47.766Z,6.30
2018-07-05T04:13:21.656Z,6.30
2018-07-05T04:15:55.665Z,6.27
2018-07-05T04:18:29.711Z,6.90
2018-07-05T04:21:03.618Z,7.00
2018-07-05T04:23:37.552Z,6.50
2018-07-05T04:26:11.568Z,6.63
2018-07-05T04:28:45.536Z,6.80
2018-07-05T04:31:20.467Z,6.43
2018-07-05T04:33:54.531Z,7.03
2018-07-05T04:36:28.800Z,6.83
2018-07-05T04:39:02.936Z,6.77
2018-07-05T04:41:36.944Z,7.13
2018-07-05T04:44:11.080Z,6.50
2018-07-05T04:46:45.414Z,6.67
2018-07-05T04:49:19.511Z,6.87
2018-07-05T04:51:58.994Z,6.40
2018-07-05T04:54:32.973Z,6.80
2018-07-05T04:57:07.186Z,6.73
2018-07-05T04:59:41.221Z,6.33
2018-07-05T05:02:15.311Z,6.77
2018-07-05T05:04:49.426Z,6.67
2018-07-05T05:07:23.479Z,6.60
2018-07-05T05:09:57.448Z,5.67
2018-07-05T05:12:31.648Z,6.17
2018-07-05T05:15:05.662Z,6.70
2018-07-05T05:17:39.794Z,6.40
2018-07-05T05:20:13.857Z,5.70
2018-07-05T05:22:47.903Z,5.70
2018-07-05T05:25:22.040Z,5.73
2018-07-05T05:27:56.489Z,5.20
2018-07-05T05:30:30.547Z,5.50
2018-07-05T05:33:04.596Z,5.20
2018-07-05T05:35:38.550Z,5.10
2018-07-05T05:38:12.550Z,5.33
2018-07-05T05:40:46.492Z,5.33
2018-07-05T05:43:20.947Z,5.33
2018-07-05T05:45:55.084Z,4.87
2018-07-05T05:48:29.674Z,4.73
2018-07-05T05:51:03.713Z,4.40
2018-07-05T05:53:37.796Z,4.63
2018-07-05T05:56:11.825Z,4.97
2018-07-05T05:58:46.015Z,4.23
2018-07-05T06:01:20.132Z,4.50
2018-07-05T06:03:54.130Z,4.27
2018-07-05T06:06:28.158Z,4.43
2018-07-05T06:09:02.261Z,3.60
2018-07-05T06:11:36.281Z,3.80
2018-07-05T06:14:10.640Z,3.70
2018-07-05T06:16:44.761Z,3.73
2018-07-05T06:19:18.905Z,3.43
2018-07-05T06:21:52.990Z,3.20
2018-07-05T06:24:27.046Z,3.50
2018-07-05T06:27:01.129Z,3.43
2018-07-05T06:29:35.312Z,3.73
2018-07-05T06:32:09.366Z,3.25
2018-07-05T06:34:43.419Z,3.95
2018-07-05T06:37:17.370Z,3.87
2018-07-05T06:39:51.579Z,3.90
2018-07-05T06:42:25.572Z,3.73
2018-07-05T06:44:59.477Z,3.67
2018-07-05T06:47:33.479Z,4.43
2018-07-05T06:50:07.404Z,4.30
2018-07-05T06:52:41.349Z,3.90
2018-07-05T06:55:15.450Z,3.80
2018-07-05T06:57:49.382Z,3.93
2018-07-05T07:00:23.615Z,3.87
2018-07-05T07:02:57.804Z,4.50
2018-07-05T07:05:31.946Z,4.70
2018-07-05T07:08:06.312Z,3.90
2018-07-05T07:10:40.484Z,3.63
2018-07-05T07:13:14.595Z,4.37
2018-07-05T07:15:48.675Z,4.10
2018-07-05T07:18:22.823Z,4.07
2018-07-05T07:20:56.937Z,4.07
2018-07-05T07:23:31.124Z,4.00
2018-07-05T07:26:05.370Z,3.93
2018-07-05T07:28:39.455Z,4.27
2018-07-05T07:31:13.577Z,4.03
2018-07-05T07:33:47.713Z,4.03
2018-07-05T07:36:21.796Z,3.57
2018-07-05T07:38:55.808Z,3.37
2018-07-05T07:41:29.952Z,3.20
2018-07-05T07:43:58.103Z,3.10
2018-07-05T07:46:26.313Z,3.33
2018-07-05T07:48:54.489Z,3.10
2018-07-05T07:51:23.421Z,3.30
2018-07-05T07:53:52.149Z,3.33
2018-07-05T07:56:20.632Z,3.57
2018-07-05T07:58:48.738Z,3.30
2018-07-05T08:01:16.888Z,2.80
2018-07-05T08:03:45.198Z,2.83
2018-07-05T08:06:13.274Z,3.33
2018-07-05T08:08:41.457Z,3.30
2018-07-05T08:11:09.343Z,3.10
2018-07-05T08:13:37.271Z,2.70
2018-07-05T08:16:05.165Z,2.67
2018-07-05T08:18:33.082Z,2.97
2018-07-05T08:21:00.998Z,2.70
2018-07-05T08:23:28.908Z,2.70
2018-07-05T08:25:56.792Z,2.67
2018-07-05T08:28:24.704Z,2.93
2018-07-05T08:30:52.632Z,3.00
2018-07-05T08:33:20.515Z,3.10
2018-07-05T08:35:48.392Z,2.90
2018-07-05T08:38:16.291Z,2.63
2018-07-05T08:40:44.169Z,2.73
2018-07-05T08:43:12.084Z,3.27
2018-07-05T08:45:39.968Z,2.70
2018-07-05T08:48:07.870Z,2.67
2018-07-05T08:50:35.747Z,2.40
2018-07-05T08:53:03.639Z,2.40
2018-07-05T08:55:31.549Z,2.40
2018-07-05T08:57:59.430Z,2.40
2018-07-05T09:00:27.318Z,2.83
2018-07-05T09:02:55.195Z,2.13
2018-07-05T09:05:23.158Z,2.60
2018-07-05T09:07:51.050Z,2.20
2018-07-05T09:10:18.933Z,2.43
2018-07-05T09:12:46.812Z,2.70
2018-07-05T09:15:14.789Z,2.33
2018-07-05T09:17:42.856Z,1.93
2018-07-05T09:20:10.660Z,2.37
2018-07-05T09:22:38.604Z,2.13
2018-07-05T09:25:06.508Z,2.20
2018-07-05T09:27:34.448Z,1.90
2018-07-05T09:30:02.341Z,2.20
2018-07-05T09:32:30.262Z,2.37
2018-07-05T09:34:58.143Z,1.70
2018-07-05T09:37:26.089Z,1.87
2018-07-05T09:39:53.947Z,2.20
2018-07-05T09:42:22.011Z,3.72
2018-07-05T09:44:50.189Z,2.90
2018-07-05T09:47:18.242Z,2.50
2018-07-05T09:49:46.216Z,2.30
2018-07-05T09:52:14.392Z,2.20
2018-07-05T09:54:42.496Z,2.12
2018-07-05T09:57:10.776Z,2.08
2018-07-05T09:59:38.955Z,2.12
2018-07-05T10:02:07.134Z,2.10
2018-07-05T10:04:35.179Z,2.27
2018-07-05T10:07:03.389Z,2.30
2018-07-05T10:09:31.567Z,2.25
2018-07-05T10:11:59.511Z,2.60
2018-07-05T10:14:27.691Z,2.02
2018-07-05T10:16:55.768Z,1.90
2018-07-05T10:19:23.934Z,2.33
2018-07-05T10:21:52.052Z,2.20
2018-07-05T10:24:20.745Z,2.10
2018-07-05T10:26:48.717Z,2.00
2018-07-05T10:29:22.904Z,2.02
2018-07-05T10:31:56.944Z,1.98
2018-07-05T10:34:24.993Z,1.87
2018-07-05T10:36:53.072Z,2.20
2018-07-05T10:39:21.173Z,2.00
2018-07-05T10:41:55.264Z,1.95
2018-07-05T10:44:29.504Z,1.62
2018-07-05T10:47:03.822Z,2.00
2018-07-05T10:49:38.041Z,1.98
2018-07-05T10:52:12.154Z,1.87
2018-07-05T10:54:46.240Z,1.92
2018-07-05T10:57:20.352Z,2.20
2018-07-05T10:59:54.502Z,2.15
2018-07-05T11:02:28.788Z,1.90
2018-07-05T11:05:03.031Z,2.02
2018-07-05T11:07:37.216Z,1.80
2018-07-05T11:10:11.361Z,1.95
2018-07-05T11:12:45.543Z,2.33
2018-07-05T11:15:19.560Z,2.20
2018-07-05T11:17:53.776Z,1.92
2018-07-05T11:20:27.887Z,1.55
2018-07-05T11:23:02.108Z,2.15
2018-07-05T11:25:36.153Z,2.05
2018-07-05T11:28:10.161Z,1.72
2018-07-05T11:30:44.273Z,2.08
2018-07-05T11:33:18.491Z,1.92
2018-07-05T11:35:52.785Z,1.70
2018-07-05T11:38:26.922Z,1.80
2018-07-05T11:41:01.140Z,2.10
2018-07-05T11:43:35.354Z,1.80
2018-07-05T11:46:09.398Z,1.92
2018-07-05T11:48:43.583Z,1.80
2018-07-05T11:51:17.912Z,1.57
2018-07-05T11:53:51.984Z,1.55
2018-07-05T11:56:26.128Z,1.60
2018-07-05T11:59:00.245Z,1.72
2018-07-05T12:01:34.462Z,1.75
2018-07-05T12:04:08.555Z,1.80
2018-07-05T12:06:42.892Z,1.80
2018-07-05T12:09:16.975Z,2.10
2018-07-05T12:11:51.224Z,2.08
2018-07-05T12:14:25.511Z,2.08
2018-07-05T12:16:59.624Z,2.00
2018-07-05T12:19:33.850Z,2.20
2018-07-05T12:22:07.955Z,2.10
2018-07-05T12:24:41.998Z,2.10
2018-07-05T12:27:16.029Z,2.30
2018-07-05T12:29:50.304Z,2.30
2018-07-05T12:32:24.412Z,2.00
2018-07-05T12:34:58.555Z,2.58
2018-07-05T12:37:32.873Z,2.12
2018-07-05T12:40:07.093Z,2.27
2018-07-05T12:42:41.306Z,2.42
2018-07-05T12:45:15.387Z,2.40
2018-07-05T12:47:49.711Z,2.25
2018-07-05T12:50:23.955Z,2.45
2018-07-05T12:52:58.244Z,2.20
2018-07-05T12:55:32.460Z,2.40
2018-07-05T12:58:06.606Z,2.10
2018-07-05T13:00:40.588Z,2.33
2018-07-05T13:03:14.695Z,2.37
2018-07-05T13:05:48.845Z,2.30
2018-07-05T13:08:22.963Z,2.95
2018-07-05T13:10:58.212Z,2.72
2018-07-05T13:13:32.414Z,2.60
2018-07-05T13:16:06.603Z,2.45
2018-07-05T13:18:40.745Z,2.10
2018-07-05T13:21:15.166Z,2.45
2018-07-05T13:23:49.280Z,2.40
2018-07-05T13:26:23.483Z,2.30
2018-07-05T13:28:57.713Z,2.42
2018-07-05T13:31:32.003Z,2.50
2018-07-05T13:34:06.042Z,2.40
2018-07-05T13:36:40.053Z,2.52
2018-07-05T13:39:14.270Z,2.25
2018-07-05T13:41:48.355Z,2.52
2018-07-05T13:44:22.396Z,2.42
2018-07-05T13:46:56.480Z,2.37
2018-07-05T13:49:30.828Z,2.52
2018-07-05T13:52:05.147Z,2.30
2018-07-05T13:54:39.333Z,3.27
2018-07-05T13:57:13.348Z,2.50
2018-07-05T13:59:47.559Z,2.58
2018-07-05T14:02:21.676Z,2.83
2018-07-05T14:04:55.921Z,2.83
2018-07-05T14:07:30.035Z,3.08
2018-07-05T14:10:04.252Z,2.80
2018-07-05T14:12:38.644Z,2.37
2018-07-05T14:15:23.735Z,2.47
2018-07-05T14:17:57.921Z,2.55
2018-07-05T14:20:32.168Z,2.67
2018-07-05T14:23:06.252Z,2.85
2018-07-05T14:25:40.474Z,3.00
2018-07-05T14:28:14.511Z,2.80
2018-07-05T14:30:48.727Z,2.50
2018-07-05T14:33:22.637Z,2.95
2018-07-05T14:35:56.648Z,3.08
2018-07-05T14:38:30.732Z,2.83
2018-07-05T14:41:04.980Z,3.00
2018-07-05T14:43:39.195Z,2.60
2018-07-05T14:46:13.382Z,2.60
2018-07-05T14:48:47.599Z,2.95
2018-07-05T14:51:21.846Z,2.92
2018-07-05T14:53:55.860Z,2.95
2018-07-05T14:56:30.072Z,2.77
2018-07-05T14:59:04.079Z,2.98
2018-07-05T15:01:38.221Z,2.70
2018-07-05T15:04:12.197Z,3.02
2018-07-05T15:06:46.395Z,3.00
2018-07-05T15:09:20.492Z,3.10
2018-07-05T15:11:55.498Z,2.90
2018-07-05T15:14:30.181Z,3.87
2018-07-05T15:17:04.319Z,4.22
2018-07-05T15:19:38.323Z,3.45
2018-07-05T15:22:12.442Z,3.37
2018-07-05T15:24:46.552Z,3.27
2018-07-05T15:27:20.667Z,3.55
2018-07-05T15:29:54.605Z,3.42
2018-07-05T15:32:28.674Z,3.30
2018-07-05T15:35:02.666Z,3.75
2018-07-05T15:37:36.814Z,3.50
2018-07-05T15:40:10.827Z,3.47
2018-07-05T15:42:44.959Z,3.02
2018-07-05T15:45:18.939Z,3.42
2018-07-05T15:47:52.988Z,3.25
2018-07-05T15:50:26.891Z,2.98
2018-07-05T15:53:01.045Z,3.22
2018-07-05T15:55:35.137Z,3.20
2018-07-05T15:58:09.115Z,3.30
2018-07-05T16:00:43.127Z,3.42
2018-07-05T16:03:17.116Z,3.33
2018-07-05T16:05:51.187Z,3.70
2018-07-05T16:08:25.412Z,3.60
2018-07-05T16:10:59.446Z,3.00
2018-07-05T16:13:33.354Z,3.30
2018-07-05T16:16:07.552Z,3.52
2018-07-05T16:18:41.631Z,3.22
2018-07-05T16:21:15.663Z,3.22
2018-07-05T16:23:49.740Z,3.40
2018-07-05T16:26:23.734Z,3.40
2018-07-05T16:28:57.772Z,3.37
2018-07-05T16:31:31.607Z,3.08
2018-07-05T16:34:05.814Z,3.33
2018-07-05T16:36:39.696Z,3.95
2018-07-05T16:39:13.695Z,2.92
2018-07-05T16:41:47.647Z,3.05
2018-07-05T16:44:21.756Z,3.40
2018-07-05T16:46:55.783Z,3.22
2018-07-05T16:49:29.893Z,3.20
2018-07-05T16:52:03.943Z,3.62
2018-07-05T16:54:38.099Z,3.25
2018-07-05T16:57:12.168Z,3.50
2018-07-05T16:59:46.292Z,3.40
2018-07-05T17:02:20.256Z,3.27
2018-07-05T17:04:54.371Z,3.65
2018-07-05T17:07:28.428Z,3.95
2018-07-05T17:10:02.544Z,3.45
2018-07-05T17:12:36.508Z,3.40
2018-07-05T17:15:10.752Z,3.72
2018-07-05T17:17:44.840Z,3.87
2018-07-05T17:20:18.894Z,3.60
2018-07-05T17:22:53.088Z,3.45
2018-07-05T17:25:27.223Z,4.05
2018-07-05T17:28:01.240Z,4.30
2018-07-05T17:30:35.393Z,5.70
2018-07-05T17:33:09.496Z,5.50
2018-07-05T17:35:43.590Z,4.60
2018-07-05T17:38:17.546Z,3.80
2018-07-05T17:40:52.014Z,4.20
2018-07-05T17:43:25.865Z,4.17
2018-07-05T17:45:59.971Z,4.20
2018-07-05T17:48:34.009Z,4.00
2018-07-05T17:51:08.195Z,4.30
2018-07-05T17:53:42.067Z,3.50
2018-07-05T17:56:16.200Z,3.63
2018-07-05T17:58:50.409Z,3.80
2018-07-05T18:01:24.413Z,3.55
2018-07-05T18:03:58.264Z,3.77
2018-07-05T18:06:32.284Z,3.90
2018-07-05T18:09:06.280Z,3.40
2018-07-05T18:11:40.508Z,4.20
2018-07-05T18:14:14.412Z,4.40
2018-07-05T18:16:48.733Z,4.30
2018-07-05T18:19:22.808Z,4.30
2018-07-05T18:21:56.856Z,4.60
2018-07-05T18:24:30.873Z,5.03
2018-07-05T18:27:04.969Z,4.37
2018-07-05T18:29:38.963Z,4.30
2018-07-05T18:32:12.867Z,4.67
2018-07-05T18:34:47.019Z,5.47
2018-07-05T18:37:20.927Z,4.63
2018-07-05T18:39:55.073Z,4.57
2018-07-05T18:42:29.178Z,4.67
2018-07-05T18:45:03.204Z,4.27
2018-07-05T18:47:37.629Z,4.50
2018-07-05T18:50:11.632Z,4.90
2018-07-05T18:52:45.643Z,4.60
2018-07-05T18:55:19.602Z,4.83
2018-07-05T18:57:53.730Z,4.80
2018-07-05T19:00:28.032Z,5.20
2018-07-05T19:03:02.146Z,5.40
2018-07-05T19:05:36.545Z,6.70
2018-07-05T19:08:10.619Z,8.63
2018-07-05T19:10:44.771Z,7.77
2018-07-05T19:13:18.908Z,7.47
2018-07-05T19:15:52.995Z,8.10
2018-07-05T19:18:27.443Z,8.40
2018-07-05T19:21:01.530Z,9.20
2018-07-05T19:23:36.388Z,10.57
2018-07-05T19:26:10.688Z,26.13
2018-07-05T19:28:44.898Z,17.67
2018-07-05T19:31:19.118Z,14.80
2018-07-05T19:33:53.466Z,14.83
2018-07-05T19:36:27.757Z,12.93
2018-07-05T19:39:02.099Z,12.30
2018-07-05T19:41:36.387Z,10.70
2018-07-05T19:44:10.704Z,9.57
2018-07-05T19:46:44.712Z,9.27
2018-07-05T19:49:18.728Z,10.90
2018-07-05T19:51:52.766Z,11.97
2018-07-05T19:54:27.056Z,12.37
2018-07-05T19:57:00.996Z,11.97
2018-07-05T19:59:35.108Z,11.87
2018-07-05T20:02:09.325Z,10.87
2018-07-05T20:04:43.540Z,9.87
2018-07-05T20:07:17.763Z,10.03
2018-07-05T20:09:51.871Z,10.17
2018-07-05T20:12:26.089Z,8.80
2018-07-05T20:15:00.432Z,6.93
2018-07-05T20:17:34.488Z,6.20
2018-07-05T20:20:08.603Z,5.60
2018-07-05T20:22:42.616Z,5.07
2018-07-05T20:25:16.764Z,5.67
2018-07-05T20:27:50.691Z,4.50
2018-07-05T20:30:24.886Z,5.00
2018-07-05T20:32:58.999Z,4.90
2018-07-05T20:35:32.926Z,4.80
2018-07-05T20:38:06.996Z,4.83
2018-07-05T20:40:41.166Z,4.97
2018-07-05T20:43:14.978Z,4.93
2018-07-05T20:46:04.050Z,4.93
2018-07-05T20:48:58.398Z,4.90
2018-07-05T20:51:40.229Z,4.63
2018-07-05T20:54:15.309Z,5.23
2018-07-05T20:56:52.463Z,5.47
2018-07-05T20:59:34.452Z,5.97
2018-07-05T21:02:11.995Z,7.40
2018-07-05T21:04:46.047Z,8.53
2018-07-05T21:07:21.113Z,9.87
2018-07-05T21:09:58.208Z,12.83
2018-07-05T21:12:34.874Z,13.80
2018-07-05T21:15:09.165Z,14.10
2018-07-05T21:17:43.034Z,16.63
2018-07-05T21:20:17.129Z,13.97
2018-07-05T21:25:40.405Z,12.93
2018-07-05T21:28:14.386Z,16.40
2018-07-05T21:30:48.910Z,10.23
2018-07-05T21:33:23.149Z,10.93
2018-07-05T21:35:57.686Z,17.37
2018-07-05T21:38:31.877Z,12.40
2018-07-05T21:41:08.720Z,13.63
2018-07-05T21:43:48.624Z,11.77
2018-07-05T21:46:27.024Z,9.03
2018-07-05T21:58:28.768Z,9.43
2018-07-05T22:01:02.776Z,11.33
2018-07-05T22:03:39.013Z,11.13
2018-07-05T22:06:13.621Z,9.07
2018-07-05T22:08:47.777Z,8.73
2018-07-05T22:11:21.902Z,7.57
2018-07-05T22:13:56.168Z,9.97
2018-07-05T22:16:34.142Z,9.63
2018-07-05T22:19:15.787Z,8.20
2018-07-05T22:21:55.217Z,9.20
2018-07-05T22:24:35.846Z,6.70
2018-07-05T22:27:21.855Z,8.07
2018-07-05T22:30:04.224Z,8.63
2018-07-05T22:37:23.333Z,9.87
2018-07-05T22:39:57.620Z,12.53
2018-07-05T22:42:32.510Z,12.73
2018-07-05T22:45:06.527Z,15.70
2018-07-05T22:47:45.409Z,13.67
2018-07-05T22:50:20.480Z,14.97
2018-07-05T22:52:54.589Z,18.50
2018-07-05T22:55:28.634Z,12.63
2018-07-05T22:58:05.319Z,14.60
2018-07-05T23:00:40.232Z,14.53
2018-07-05T23:03:16.202Z,13.07
2018-07-05T23:05:53.443Z,10.80
2018-07-05T23:08:28.122Z,10.37
2018-07-05T23:11:03.193Z,10.20
2018-07-05T23:13:38.045Z,10.93
2018-07-05T23:16:13.528Z,12.43
2018-07-05T23:18:47.534Z,11.43
2018-07-05T23:21:21.685Z,9.07
2018-07-05T23:23:57.704Z,13.73
2018-07-05T23:26:31.726Z,8.90
2018-07-05T23:29:05.691Z,11.80
2018-07-05T23:31:43.094Z,15.33
2018-07-05T23:34:17.615Z,13.63
2018-07-05T23:36:51.905Z,12.90
2018-07-05T23:39:26.585Z,14.17
2018-07-05T23:42:01.654Z,12.77
2018-07-05T23:44:35.610Z,10.03
2018-07-05T23:47:09.603Z,9.87
2018-07-05T23:49:43.644Z,8.67
2018-07-05T23:52:17.716Z,7.63
2018-07-05T23:54:51.691Z,8.50
2018-07-05T23:57:25.810Z,10.20
2018-07-05T23:59:59.922Z,11.67
